sensor_id;sensor_type;location;lat;lon;timestamp;temperature;humidity
18950;DHT22;9608;49.288;8.130;2022-12-29T00:02:20;11.40;99.90
18950;DHT22;9608;49.288;8.130;2022-12-29T00:04:49;11.30;99.90
18950;DHT22;9608;49.288;8.130;2022-12-29T00:07:17;11.30;99.90
18950;DHT22;9608;49.288;8.130;2022-12-29T00:09:43;11.20;99.90
18950;DHT22;9608;49.288;8.130;2022-12-29T00:12:10;11.30;99.90
18950;DHT22;9608;49.288;8.130;2022-12-29T00:14:37;11.20;99.90
18950;DHT22;9608;49.288;8.130;2022-12-29T00:17:21;11.20;99.90
18950;DHT22;9608;49.288;8.130;2022-12-29T00:19:48;11.10;99.90
18950;DHT22;9608;49.288;8.130;2022-12-29T00:22:34;11.10;99.90
18950;DHT22;9608;49.288;8.130;2022-12-29T00:25:18;11.10;99.90
18950;DHT22;9608;49.288;8.130;2022-12-29T00:28:02;11.20;99.90
18950;DHT22;9608;49.288;8.130;2022-12-29T00:30:47;11.30;99.90
18950;DHT22;9608;49.288;8.130;2022-12-29T00:33:32;11.40;99.90
18950;DHT22;9608;49.288;8.130;2022-12-29T00:36:18;11.40;99.90
18950;DHT22;9608;49.288;8.130;2022-12-29T00:38:50;11.50;99.90
18950;DHT22;9608;49.288;8.130;2022-12-29T00:41:35;11.60;99.90
18950;DHT22;9608;49.288;8.130;2022-12-29T00:44:33;11.60;99.90
18950;DHT22;9608;49.288;8.130;2022-12-29T00:47:00;11.60;99.90
18950;DHT22;9608;49.288;8.130;2022-12-29T00:49:29;11.50;99.90
18950;DHT22;9608;49.288;8.130;2022-12-29T00:51:56;11.50;99.90
18950;DHT22;9608;49.288;8.130;2022-12-29T00:54:25;11.40;99.90
18950;DHT22;9608;49.288;8.130;2022-12-29T00:56:52;11.30;99.90
18950;DHT22;9608;49.288;8.130;2022-12-29T00:59:19;11.20;99.90
18950;DHT22;9608;49.288;8.130;2022-12-29T01:01:47;11.30;99.90
18950;DHT22;9608;49.288;8.130;2022-12-29T01:04:14;11.30;99.90
18950;DHT22;9608;49.288;8.130;2022-12-29T01:06:41;11.20;99.90
18950;DHT22;9608;49.288;8.130;2022-12-29T01:09:08;11.10;99.90
18950;DHT22;9608;49.288;8.130;2022-12-29T01:11:54;11.10;99.90
18950;DHT22;9608;49.288;8.130;2022-12-29T01:14:22;11.00;99.90
18950;DHT22;9608;49.288;8.130;2022-12-29T01:16:49;11.00;99.90
18950;DHT22;9608;49.288;8.130;2022-12-29T01:19:17;11.00;99.90
18950;DHT22;9608;49.288;8.130;2022-12-29T01:21:44;10.90;99.90
18950;DHT22;9608;49.288;8.130;2022-12-29T01:24:10;11.00;99.90
18950;DHT22;9608;49.288;8.130;2022-12-29T01:26:37;11.00;99.90
18950;DHT22;9608;49.288;8.130;2022-12-29T01:29:05;11.00;99.90
18950;DHT22;9608;49.288;8.130;2022-12-29T01:31:32;11.10;99.90
18950;DHT22;9608;49.288;8.130;2022-12-29T01:33:59;11.00;99.90
18950;DHT22;9608;49.288;8.130;2022-12-29T01:36:25;10.90;99.90
18950;DHT22;9608;49.288;8.130;2022-12-29T01:38:52;10.80;99.90
18950;DHT22;9608;49.288;8.130;2022-12-29T01:41:19;10.70;99.90
18950;DHT22;9608;49.288;8.130;2022-12-29T01:43:47;10.70;99.90
18950;DHT22;9608;49.288;8.130;2022-12-29T01:46:26;10.70;99.90
18950;DHT22;9608;49.288;8.130;2022-12-29T01:48:57;10.80;99.90
18950;DHT22;9608;49.288;8.130;2022-12-29T01:51:26;10.90;99.90
18950;DHT22;9608;49.288;8.130;2022-12-29T01:53:58;10.90;99.90
18950;DHT22;9608;49.288;8.130;2022-12-29T01:56:27;11.00;99.90
18950;DHT22;9608;49.288;8.130;2022-12-29T01:58:58;11.00;99.90
18950;DHT22;9608;49.288;8.130;2022-12-29T02:01:28;10.90;99.90
18950;DHT22;9608;49.288;8.130;2022-12-29T02:03:54;11.00;99.90
18950;DHT22;9608;49.288;8.130;2022-12-29T02:06:23;11.10;99.90
18950;DHT22;9608;49.288;8.130;2022-12-29T02:08:52;11.10;99.90
18950;DHT22;9608;49.288;8.130;2022-12-29T02:11:21;11.10;99.90
18950;DHT22;9608;49.288;8.130;2022-12-29T02:13:49;11.00;99.90
18950;DHT22;9608;49.288;8.130;2022-12-29T02:16:35;11.00;99.90
18950;DHT22;9608;49.288;8.130;2022-12-29T02:19:27;11.00;99.90
18950;DHT22;9608;49.288;8.130;2022-12-29T02:22:05;11.00;99.90
18950;DHT22;9608;49.288;8.130;2022-12-29T02:27:43;11.10;99.90
18950;DHT22;9608;49.288;8.130;2022-12-29T02:30:45;11.20;99.90
18950;DHT22;9608;49.288;8.130;2022-12-29T02:33:23;11.20;99.90
18950;DHT22;9608;49.288;8.130;2022-12-29T02:36:01;11.20;99.90
18950;DHT22;9608;49.288;8.130;2022-12-29T02:38:44;11.30;99.90
18950;DHT22;9608;49.288;8.130;2022-12-29T02:41:21;11.20;99.90
18950;DHT22;9608;49.288;8.130;2022-12-29T02:43:52;11.20;99.90
18950;DHT22;9608;49.288;8.130;2022-12-29T02:46:27;11.30;99.90
18950;DHT22;9608;49.288;8.130;2022-12-29T02:49:00;11.30;99.90
18950;DHT22;9608;49.288;8.130;2022-12-29T02:51:31;11.30;99.90
18950;DHT22;9608;49.288;8.130;2022-12-29T02:53:59;11.40;99.90
18950;DHT22;9608;49.288;8.130;2022-12-29T02:56:43;11.40;99.90
18950;DHT22;9608;49.288;8.130;2022-12-29T02:59:11;11.50;99.90
18950;DHT22;9608;49.288;8.130;2022-12-29T03:01:51;11.50;99.90
18950;DHT22;9608;49.288;8.130;2022-12-29T03:04:41;11.50;99.90
18950;DHT22;9608;49.288;8.130;2022-12-29T03:07:16;11.50;99.90
18950;DHT22;9608;49.288;8.130;2022-12-29T03:09:52;11.50;99.90
18950;DHT22;9608;49.288;8.130;2022-12-29T03:12:28;11.50;99.90
18950;DHT22;9608;49.288;8.130;2022-12-29T03:15:20;11.50;99.90
18950;DHT22;9608;49.288;8.130;2022-12-29T03:18:10;11.50;99.90
18950;DHT22;9608;49.288;8.130;2022-12-29T03:20:41;11.50;99.90
18950;DHT22;9608;49.288;8.130;2022-12-29T03:23:10;11.50;99.90
18950;DHT22;9608;49.288;8.130;2022-12-29T03:25:40;11.50;99.90
18950;DHT22;9608;49.288;8.130;2022-12-29T03:28:12;11.40;99.90
18950;DHT22;9608;49.288;8.130;2022-12-29T03:30:40;11.50;99.90
18950;DHT22;9608;49.288;8.130;2022-12-29T03:33:11;11.60;99.90
18950;DHT22;9608;49.288;8.130;2022-12-29T03:35:42;11.60;99.90
18950;DHT22;9608;49.288;8.130;2022-12-29T03:38:14;11.70;99.90
18950;DHT22;9608;49.288;8.130;2022-12-29T03:40:46;11.70;99.90
18950;DHT22;9608;49.288;8.130;2022-12-29T03:43:15;11.70;99.90
18950;DHT22;9608;49.288;8.130;2022-12-29T03:45:42;11.70;99.90
18950;DHT22;9608;49.288;8.130;2022-12-29T03:48:10;11.70;99.90
18950;DHT22;9608;49.288;8.130;2022-12-29T03:50:37;11.70;99.90
18950;DHT22;9608;49.288;8.130;2022-12-29T03:53:04;11.70;99.90
18950;DHT22;9608;49.288;8.130;2022-12-29T03:55:31;11.80;99.90
18950;DHT22;9608;49.288;8.130;2022-12-29T03:57:57;11.80;99.90
18950;DHT22;9608;49.288;8.130;2022-12-29T04:00:24;11.90;99.90
18950;DHT22;9608;49.288;8.130;2022-12-29T04:02:51;11.90;99.90
18950;DHT22;9608;49.288;8.130;2022-12-29T04:05:19;12.00;99.90
18950;DHT22;9608;49.288;8.130;2022-12-29T04:07:45;12.00;99.90
18950;DHT22;9608;49.288;8.130;2022-12-29T04:10:12;12.10;99.90
18950;DHT22;9608;49.288;8.130;2022-12-29T04:12:39;12.20;99.90
18950;DHT22;9608;49.288;8.130;2022-12-29T04:15:08;12.10;99.90
18950;DHT22;9608;49.288;8.130;2022-12-29T04:17:35;12.10;99.90
18950;DHT22;9608;49.288;8.130;2022-12-29T04:20:01;12.10;99.90
18950;DHT22;9608;49.288;8.130;2022-12-29T04:22:43;12.10;99.90
18950;DHT22;9608;49.288;8.130;2022-12-29T04:25:10;12.10;99.90
18950;DHT22;9608;49.288;8.130;2022-12-29T04:27:37;12.20;99.90
18950;DHT22;9608;49.288;8.130;2022-12-29T04:30:04;12.20;99.90
18950;DHT22;9608;49.288;8.130;2022-12-29T04:32:34;12.30;99.90
18950;DHT22;9608;49.288;8.130;2022-12-29T04:35:00;12.30;99.90
18950;DHT22;9608;49.288;8.130;2022-12-29T04:37:27;12.30;99.90
18950;DHT22;9608;49.288;8.130;2022-12-29T04:39:55;12.30;99.90
18950;DHT22;9608;49.288;8.130;2022-12-29T04:42:22;12.30;99.90
18950;DHT22;9608;49.288;8.130;2022-12-29T04:44:48;12.20;99.90
18950;DHT22;9608;49.288;8.130;2022-12-29T04:47:15;12.10;99.90
18950;DHT22;9608;49.288;8.130;2022-12-29T04:49:42;12.10;99.90
18950;DHT22;9608;49.288;8.130;2022-12-29T04:52:08;12.00;99.90
18950;DHT22;9608;49.288;8.130;2022-12-29T04:54:35;11.90;99.90
18950;DHT22;9608;49.288;8.130;2022-12-29T04:57:03;11.90;99.90
18950;DHT22;9608;49.288;8.130;2022-12-29T04:59:30;11.80;99.90
18950;DHT22;9608;49.288;8.130;2022-12-29T05:01:57;11.80;99.90
18950;DHT22;9608;49.288;8.130;2022-12-29T05:04:24;11.80;99.90
18950;DHT22;9608;49.288;8.130;2022-12-29T05:06:50;11.80;99.90
18950;DHT22;9608;49.288;8.130;2022-12-29T05:09:17;11.90;99.90
18950;DHT22;9608;49.288;8.130;2022-12-29T05:11:44;11.90;99.90
18950;DHT22;9608;49.288;8.130;2022-12-29T05:14:12;11.90;99.90
18950;DHT22;9608;49.288;8.130;2022-12-29T05:16:38;11.90;99.90
18950;DHT22;9608;49.288;8.130;2022-12-29T05:19:05;12.00;99.90
18950;DHT22;9608;49.288;8.130;2022-12-29T05:21:32;12.00;99.90
18950;DHT22;9608;49.288;8.130;2022-12-29T05:23:58;12.00;99.90
18950;DHT22;9608;49.288;8.130;2022-12-29T05:26:25;12.10;99.90
18950;DHT22;9608;49.288;8.130;2022-12-29T05:28:52;12.10;99.90
18950;DHT22;9608;49.288;8.130;2022-12-29T05:31:20;12.10;99.90
18950;DHT22;9608;49.288;8.130;2022-12-29T05:33:47;12.10;99.90
18950;DHT22;9608;49.288;8.130;2022-12-29T05:36:13;12.10;99.90
18950;DHT22;9608;49.288;8.130;2022-12-29T05:38:40;12.10;99.90
18950;DHT22;9608;49.288;8.130;2022-12-29T05:41:07;12.20;99.90
18950;DHT22;9608;49.288;8.130;2022-12-29T05:43:33;12.10;99.90
18950;DHT22;9608;49.288;8.130;2022-12-29T05:46:00;12.20;99.90
18950;DHT22;9608;49.288;8.130;2022-12-29T05:48:28;12.30;99.90
18950;DHT22;9608;49.288;8.130;2022-12-29T05:50:55;12.30;99.90
18950;DHT22;9608;49.288;8.130;2022-12-29T05:53:22;12.40;99.90
18950;DHT22;9608;49.288;8.130;2022-12-29T05:55:49;12.40;99.90
18950;DHT22;9608;49.288;8.130;2022-12-29T05:58:16;12.40;99.90
18950;DHT22;9608;49.288;8.130;2022-12-29T06:00:43;12.40;99.90
18950;DHT22;9608;49.288;8.130;2022-12-29T06:03:10;12.50;99.90
18950;DHT22;9608;49.288;8.130;2022-12-29T06:05:38;12.50;99.90
18950;DHT22;9608;49.288;8.130;2022-12-29T06:08:04;12.60;99.90
18950;DHT22;9608;49.288;8.130;2022-12-29T06:10:31;12.70;99.90
18950;DHT22;9608;49.288;8.130;2022-12-29T06:12:58;12.80;99.90
18950;DHT22;9608;49.288;8.130;2022-12-29T06:15:24;12.80;99.90
18950;DHT22;9608;49.288;8.130;2022-12-29T06:17:51;12.80;99.90
18950;DHT22;9608;49.288;8.130;2022-12-29T06:20:18;12.80;99.90
18950;DHT22;9608;49.288;8.130;2022-12-29T06:22:46;12.90;99.90
18950;DHT22;9608;49.288;8.130;2022-12-29T06:25:13;12.90;99.90
18950;DHT22;9608;49.288;8.130;2022-12-29T06:27:39;12.90;99.90
18950;DHT22;9608;49.288;8.130;2022-12-29T06:30:07;13.00;99.90
18950;DHT22;9608;49.288;8.130;2022-12-29T06:32:34;13.00;99.90
18950;DHT22;9608;49.288;8.130;2022-12-29T06:35:01;13.00;99.90
18950;DHT22;9608;49.288;8.130;2022-12-29T06:37:28;13.00;99.90
18950;DHT22;9608;49.288;8.130;2022-12-29T06:39:57;13.10;99.90
18950;DHT22;9608;49.288;8.130;2022-12-29T06:42:23;13.00;99.90
18950;DHT22;9608;49.288;8.130;2022-12-29T06:44:50;13.00;99.90
18950;DHT22;9608;49.288;8.130;2022-12-29T06:47:17;13.00;99.90
18950;DHT22;9608;49.288;8.130;2022-12-29T06:49:45;12.90;99.90
18950;DHT22;9608;49.288;8.130;2022-12-29T06:52:12;12.90;99.90
18950;DHT22;9608;49.288;8.130;2022-12-29T06:54:38;12.80;99.90
18950;DHT22;9608;49.288;8.130;2022-12-29T06:57:06;12.60;99.90
18950;DHT22;9608;49.288;8.130;2022-12-29T06:59:33;12.50;99.90
18950;DHT22;9608;49.288;8.130;2022-12-29T07:02:00;12.40;99.90
18950;DHT22;9608;49.288;8.130;2022-12-29T07:04:27;12.30;99.90
18950;DHT22;9608;49.288;8.130;2022-12-29T07:06:54;12.30;99.90
18950;DHT22;9608;49.288;8.130;2022-12-29T07:09:20;12.10;99.90
18950;DHT22;9608;49.288;8.130;2022-12-29T07:11:47;12.10;99.90
18950;DHT22;9608;49.288;8.130;2022-12-29T07:14:15;12.00;99.90
18950;DHT22;9608;49.288;8.130;2022-12-29T07:16:42;11.90;99.90
18950;DHT22;9608;49.288;8.130;2022-12-29T07:19:08;11.80;99.90
18950;DHT22;9608;49.288;8.130;2022-12-29T07:21:35;11.80;99.90
18950;DHT22;9608;49.288;8.130;2022-12-29T07:24:02;11.90;99.90
18950;DHT22;9608;49.288;8.130;2022-12-29T07:26:29;12.20;99.90
18950;DHT22;9608;49.288;8.130;2022-12-29T07:28:55;12.40;99.90
18950;DHT22;9608;49.288;8.130;2022-12-29T07:31:23;12.60;99.90
18950;DHT22;9608;49.288;8.130;2022-12-29T07:33:50;12.70;99.90
18950;DHT22;9608;49.288;8.130;2022-12-29T07:36:17;12.80;99.90
18950;DHT22;9608;49.288;8.130;2022-12-29T07:38:44;12.90;99.90
18950;DHT22;9608;49.288;8.130;2022-12-29T07:41:11;13.10;99.90
18950;DHT22;9608;49.288;8.130;2022-12-29T07:43:37;13.10;99.90
18950;DHT22;9608;49.288;8.130;2022-12-29T07:46:04;13.20;99.90
18950;DHT22;9608;49.288;8.130;2022-12-29T07:48:32;13.20;99.90
18950;DHT22;9608;49.288;8.130;2022-12-29T07:51:01;13.20;99.90
18950;DHT22;9608;49.288;8.130;2022-12-29T07:53:28;13.30;99.90
18950;DHT22;9608;49.288;8.130;2022-12-29T07:55:54;13.30;99.90
18950;DHT22;9608;49.288;8.130;2022-12-29T07:58:21;13.40;99.90
18950;DHT22;9608;49.288;8.130;2022-12-29T08:00:53;13.40;99.90
18950;DHT22;9608;49.288;8.130;2022-12-29T08:03:19;13.40;99.90
18950;DHT22;9608;49.288;8.130;2022-12-29T08:05:48;13.40;99.90
18950;DHT22;9608;49.288;8.130;2022-12-29T08:08:15;13.40;99.90
18950;DHT22;9608;49.288;8.130;2022-12-29T08:10:41;13.50;99.90
18950;DHT22;9608;49.288;8.130;2022-12-29T08:13:08;13.50;99.90
18950;DHT22;9608;49.288;8.130;2022-12-29T08:15:35;13.50;99.90
18950;DHT22;9608;49.288;8.130;2022-12-29T08:18:03;13.50;99.90
18950;DHT22;9608;49.288;8.130;2022-12-29T08:20:30;13.50;99.90
18950;DHT22;9608;49.288;8.130;2022-12-29T08:22:58;13.60;99.90
18950;DHT22;9608;49.288;8.130;2022-12-29T08:25:25;13.50;99.90
18950;DHT22;9608;49.288;8.130;2022-12-29T08:27:52;13.50;99.90
18950;DHT22;9608;49.288;8.130;2022-12-29T08:30:18;13.50;99.90
18950;DHT22;9608;49.288;8.130;2022-12-29T08:32:45;13.40;99.90
18950;DHT22;9608;49.288;8.130;2022-12-29T08:35:12;13.40;99.90
18950;DHT22;9608;49.288;8.130;2022-12-29T08:37:39;13.30;99.90
18950;DHT22;9608;49.288;8.130;2022-12-29T08:40:08;13.20;99.90
18950;DHT22;9608;49.288;8.130;2022-12-29T08:42:35;13.10;99.90
18950;DHT22;9608;49.288;8.130;2022-12-29T08:45:02;13.10;99.90
18950;DHT22;9608;49.288;8.130;2022-12-29T08:47:29;13.10;99.90
18950;DHT22;9608;49.288;8.130;2022-12-29T08:49:56;13.00;99.90
18950;DHT22;9608;49.288;8.130;2022-12-29T08:52:22;12.90;99.90
18950;DHT22;9608;49.288;8.130;2022-12-29T08:54:49;12.90;99.90
18950;DHT22;9608;49.288;8.130;2022-12-29T08:57:17;12.90;99.90
18950;DHT22;9608;49.288;8.130;2022-12-29T08:59:44;13.00;99.90
18950;DHT22;9608;49.288;8.130;2022-12-29T09:02:11;12.90;99.90
18950;DHT22;9608;49.288;8.130;2022-12-29T09:04:37;12.80;99.90
18950;DHT22;9608;49.288;8.130;2022-12-29T09:07:04;12.70;99.90
18950;DHT22;9608;49.288;8.130;2022-12-29T09:09:31;12.50;99.90
18950;DHT22;9608;49.288;8.130;2022-12-29T09:11:58;12.40;99.90
18950;DHT22;9608;49.288;8.130;2022-12-29T09:14:26;12.20;99.90
18950;DHT22;9608;49.288;8.130;2022-12-29T09:16:54;12.10;99.90
18950;DHT22;9608;49.288;8.130;2022-12-29T09:19:38;12.10;99.90
18950;DHT22;9608;49.288;8.130;2022-12-29T09:22:05;12.20;99.90
18950;DHT22;9608;49.288;8.130;2022-12-29T09:24:31;12.10;99.90
18950;DHT22;9608;49.288;8.130;2022-12-29T09:26:58;12.10;99.90
18950;DHT22;9608;49.288;8.130;2022-12-29T09:29:26;12.00;99.90
18950;DHT22;9608;49.288;8.130;2022-12-29T09:31:52;12.10;99.90
18950;DHT22;9608;49.288;8.130;2022-12-29T09:34:19;12.00;99.90
18950;DHT22;9608;49.288;8.130;2022-12-29T09:36:46;12.00;99.90
18950;DHT22;9608;49.288;8.130;2022-12-29T09:39:12;11.90;99.90
18950;DHT22;9608;49.288;8.130;2022-12-29T09:41:43;11.80;99.90
18950;DHT22;9608;49.288;8.130;2022-12-29T09:44:17;11.80;99.90
18950;DHT22;9608;49.288;8.130;2022-12-29T09:46:48;11.70;99.90
18950;DHT22;9608;49.288;8.130;2022-12-29T09:49:21;11.70;99.90
18950;DHT22;9608;49.288;8.130;2022-12-29T09:51:52;11.70;99.90
18950;DHT22;9608;49.288;8.130;2022-12-29T09:54:37;11.80;99.90
18950;DHT22;9608;49.288;8.130;2022-12-29T09:57:13;12.00;99.90
18950;DHT22;9608;49.288;8.130;2022-12-29T09:59:43;12.00;99.90
18950;DHT22;9608;49.288;8.130;2022-12-29T10:02:36;12.10;99.90
18950;DHT22;9608;49.288;8.130;2022-12-29T10:05:04;12.10;99.90
18950;DHT22;9608;49.288;8.130;2022-12-29T10:07:44;12.20;99.90
18950;DHT22;9608;49.288;8.130;2022-12-29T10:10:24;12.30;99.90
18950;DHT22;9608;49.288;8.130;2022-12-29T10:12:59;12.30;99.90
18950;DHT22;9608;49.288;8.130;2022-12-29T10:15:38;12.50;99.90
18950;DHT22;9608;49.288;8.130;2022-12-29T10:18:21;12.50;99.90
18950;DHT22;9608;49.288;8.130;2022-12-29T10:20:52;12.60;99.90
18950;DHT22;9608;49.288;8.130;2022-12-29T10:23:26;12.70;99.90
18950;DHT22;9608;49.288;8.130;2022-12-29T10:25:55;12.70;99.90
18950;DHT22;9608;49.288;8.130;2022-12-29T10:28:24;12.80;99.90
18950;DHT22;9608;49.288;8.130;2022-12-29T10:30:51;12.70;99.90
18950;DHT22;9608;49.288;8.130;2022-12-29T10:33:23;12.70;99.90
18950;DHT22;9608;49.288;8.130;2022-12-29T10:35:52;12.60;99.90
18950;DHT22;9608;49.288;8.130;2022-12-29T10:38:25;12.40;99.90
18950;DHT22;9608;49.288;8.130;2022-12-29T10:40:57;12.50;99.90
18950;DHT22;9608;49.288;8.130;2022-12-29T10:43:26;12.60;99.90
18950;DHT22;9608;49.288;8.130;2022-12-29T10:45:56;12.80;99.90
18950;DHT22;9608;49.288;8.130;2022-12-29T10:48:27;12.90;99.90
18950;DHT22;9608;49.288;8.130;2022-12-29T10:50:57;13.30;99.90
18950;DHT22;9608;49.288;8.130;2022-12-29T10:53:27;13.30;99.90
18950;DHT22;9608;49.288;8.130;2022-12-29T10:55:57;13.40;99.90
18950;DHT22;9608;49.288;8.130;2022-12-29T10:58:26;13.40;99.90
18950;DHT22;9608;49.288;8.130;2022-12-29T11:00:55;13.50;99.90
18950;DHT22;9608;49.288;8.130;2022-12-29T11:03:40;13.60;99.90
18950;DHT22;9608;49.288;8.130;2022-12-29T11:06:10;13.50;99.90
18950;DHT22;9608;49.288;8.130;2022-12-29T11:08:41;13.40;99.90
18950;DHT22;9608;49.288;8.130;2022-12-29T11:11:23;13.30;99.90
18950;DHT22;9608;49.288;8.130;2022-12-29T11:13:56;13.40;99.90
18950;DHT22;9608;49.288;8.130;2022-12-29T11:16:31;13.50;99.90
18950;DHT22;9608;49.288;8.130;2022-12-29T11:19:01;13.20;99.90
18950;DHT22;9608;49.288;8.130;2022-12-29T11:21:33;13.20;99.90
18950;DHT22;9608;49.288;8.130;2022-12-29T11:24:01;13.20;99.90
18950;DHT22;9608;49.288;8.130;2022-12-29T11:26:29;13.30;99.90
18950;DHT22;9608;49.288;8.130;2022-12-29T11:29:16;13.20;99.90
18950;DHT22;9608;49.288;8.130;2022-12-29T11:31:45;12.90;99.90
18950;DHT22;9608;49.288;8.130;2022-12-29T11:34:19;12.60;99.90
18950;DHT22;9608;49.288;8.130;2022-12-29T11:36:47;12.50;99.90
18950;DHT22;9608;49.288;8.130;2022-12-29T11:39:30;12.40;99.90
18950;DHT22;9608;49.288;8.130;2022-12-29T11:41:59;12.40;99.90
18950;DHT22;9608;49.288;8.130;2022-12-29T11:44:31;12.00;99.90
18950;DHT22;9608;49.288;8.130;2022-12-29T11:47:00;11.70;99.90
18950;DHT22;9608;49.288;8.130;2022-12-29T11:49:28;11.60;99.90
18950;DHT22;9608;49.288;8.130;2022-12-29T11:51:55;11.70;99.90
18950;DHT22;9608;49.288;8.130;2022-12-29T11:54:25;11.70;99.90
18950;DHT22;9608;49.288;8.130;2022-12-29T11:56:54;11.70;99.90
18950;DHT22;9608;49.288;8.130;2022-12-29T11:59:25;11.70;99.90
18950;DHT22;9608;49.288;8.130;2022-12-29T12:02:21;11.80;99.90
18950;DHT22;9608;49.288;8.130;2022-12-29T12:04:56;11.80;99.90
18950;DHT22;9608;49.288;8.130;2022-12-29T12:07:36;11.80;99.90
18950;DHT22;9608;49.288;8.130;2022-12-29T12:10:05;11.90;99.90
18950;DHT22;9608;49.288;8.130;2022-12-29T12:12:37;12.00;99.90
18950;DHT22;9608;49.288;8.130;2022-12-29T12:15:12;12.10;99.90
18950;DHT22;9608;49.288;8.130;2022-12-29T12:17:47;12.20;99.90
18950;DHT22;9608;49.288;8.130;2022-12-29T12:20:19;12.00;99.90
18950;DHT22;9608;49.288;8.130;2022-12-29T12:22:57;11.90;99.90
18950;DHT22;9608;49.288;8.130;2022-12-29T12:25:31;11.80;99.90
18950;DHT22;9608;49.288;8.130;2022-12-29T12:28:04;11.70;99.90
18950;DHT22;9608;49.288;8.130;2022-12-29T12:30:38;11.60;99.90
18950;DHT22;9608;49.288;8.130;2022-12-29T12:33:16;11.50;99.90
18950;DHT22;9608;49.288;8.130;2022-12-29T12:36:01;11.60;99.90
18950;DHT22;9608;49.288;8.130;2022-12-29T12:38:39;11.50;99.90
18950;DHT22;9608;49.288;8.130;2022-12-29T12:41:10;11.30;99.90
18950;DHT22;9608;49.288;8.130;2022-12-29T12:43:41;11.10;99.90
18950;DHT22;9608;49.288;8.130;2022-12-29T12:46:25;11.10;99.90
18950;DHT22;9608;49.288;8.130;2022-12-29T12:49:19;11.10;99.90
18950;DHT22;9608;49.288;8.130;2022-12-29T12:51:57;11.10;99.90
18950;DHT22;9608;49.288;8.130;2022-12-29T12:54:43;11.10;99.90
18950;DHT22;9608;49.288;8.130;2022-12-29T12:57:30;11.20;99.90
18950;DHT22;9608;49.288;8.130;2022-12-29T13:00:03;11.20;99.90
18950;DHT22;9608;49.288;8.130;2022-12-29T13:02:49;11.20;99.90
18950;DHT22;9608;49.288;8.130;2022-12-29T13:05:32;11.20;99.90
18950;DHT22;9608;49.288;8.130;2022-12-29T13:11:02;11.30;99.90
18950;DHT22;9608;49.288;8.130;2022-12-29T13:13:48;11.40;99.90
18950;DHT22;9608;49.288;8.130;2022-12-29T13:16:22;11.30;99.90
18950;DHT22;9608;49.288;8.130;2022-12-29T13:18:56;11.10;99.90
18950;DHT22;9608;49.288;8.130;2022-12-29T13:21:33;11.30;99.90
18950;DHT22;9608;49.288;8.130;2022-12-29T13:24:10;11.30;99.90
18950;DHT22;9608;49.288;8.130;2022-12-29T13:26:43;11.20;99.90
18950;DHT22;9608;49.288;8.130;2022-12-29T13:29:16;11.10;99.90
18950;DHT22;9608;49.288;8.130;2022-12-29T13:31:51;11.20;99.90
18950;DHT22;9608;49.288;8.130;2022-12-29T13:34:27;11.20;99.90
18950;DHT22;9608;49.288;8.130;2022-12-29T13:36:56;11.30;99.90
18950;DHT22;9608;49.288;8.130;2022-12-29T13:39:30;11.40;99.90
18950;DHT22;9608;49.288;8.130;2022-12-29T13:41:59;11.40;99.90
18950;DHT22;9608;49.288;8.130;2022-12-29T13:44:30;11.20;99.90
18950;DHT22;9608;49.288;8.130;2022-12-29T13:47:01;11.00;99.90
18950;DHT22;9608;49.288;8.130;2022-12-29T13:49:32;11.00;99.90
18950;DHT22;9608;49.288;8.130;2022-12-29T13:52:08;11.00;99.90
18950;DHT22;9608;49.288;8.130;2022-12-29T13:54:44;11.00;99.90
18950;DHT22;9608;49.288;8.130;2022-12-29T13:57:19;10.90;99.90
18950;DHT22;9608;49.288;8.130;2022-12-29T13:59:57;10.90;99.90
18950;DHT22;9608;49.288;8.130;2022-12-29T14:02:31;10.90;99.90
18950;DHT22;9608;49.288;8.130;2022-12-29T14:05:01;10.80;99.90
18950;DHT22;9608;49.288;8.130;2022-12-29T14:07:28;10.70;99.90
18950;DHT22;9608;49.288;8.130;2022-12-29T14:09:57;10.50;99.90
18950;DHT22;9608;49.288;8.130;2022-12-29T14:12:31;10.40;99.90
18950;DHT22;9608;49.288;8.130;2022-12-29T14:15:04;10.30;99.90
18950;DHT22;9608;49.288;8.130;2022-12-29T14:17:32;10.20;99.90
18950;DHT22;9608;49.288;8.130;2022-12-29T14:19:59;10.10;99.90
18950;DHT22;9608;49.288;8.130;2022-12-29T14:22:27;10.10;99.90
18950;DHT22;9608;49.288;8.130;2022-12-29T14:24:55;10.10;99.90
18950;DHT22;9608;49.288;8.130;2022-12-29T14:27:44;9.90;99.90
18950;DHT22;9608;49.288;8.130;2022-12-29T14:33:25;10.00;99.90
18950;DHT22;9608;49.288;8.130;2022-12-29T14:35:54;10.00;99.90
18950;DHT22;9608;49.288;8.130;2022-12-29T14:38:30;10.00;99.90
18950;DHT22;9608;49.288;8.130;2022-12-29T14:41:30;10.10;99.90
18950;DHT22;9608;49.288;8.130;2022-12-29T14:44:00;10.10;99.90
18950;DHT22;9608;49.288;8.130;2022-12-29T14:46:43;10.10;99.90
18950;DHT22;9608;49.288;8.130;2022-12-29T14:49:16;10.10;99.90
18950;DHT22;9608;49.288;8.130;2022-12-29T14:51:44;10.20;99.90
18950;DHT22;9608;49.288;8.130;2022-12-29T14:54:44;10.20;99.90
18950;DHT22;9608;49.288;8.130;2022-12-29T14:57:34;10.10;99.90
18950;DHT22;9608;49.288;8.130;2022-12-29T15:00:14;10.20;99.90
18950;DHT22;9608;49.288;8.130;2022-12-29T15:02:46;10.20;99.90
18950;DHT22;9608;49.288;8.130;2022-12-29T15:05:26;10.20;99.90
18950;DHT22;9608;49.288;8.130;2022-12-29T15:07:56;10.20;99.90
18950;DHT22;9608;49.288;8.130;2022-12-29T15:10:25;10.10;99.90
18950;DHT22;9608;49.288;8.130;2022-12-29T15:12:55;10.10;99.90
18950;DHT22;9608;49.288;8.130;2022-12-29T15:15:23;10.00;99.90
18950;DHT22;9608;49.288;8.130;2022-12-29T15:17:50;9.80;99.90
18950;DHT22;9608;49.288;8.130;2022-12-29T15:20:23;9.70;99.90
18950;DHT22;9608;49.288;8.130;2022-12-29T15:22:54;9.70;99.90
18950;DHT22;9608;49.288;8.130;2022-12-29T15:25:22;9.80;99.90
18950;DHT22;9608;49.288;8.130;2022-12-29T15:27:50;9.80;99.90
18950;DHT22;9608;49.288;8.130;2022-12-29T15:30:20;9.80;99.90
18950;DHT22;9608;49.288;8.130;2022-12-29T15:32:48;9.80;99.90
18950;DHT22;9608;49.288;8.130;2022-12-29T15:35:28;9.70;99.90
18950;DHT22;9608;49.288;8.130;2022-12-29T15:37:56;9.80;99.90
18950;DHT22;9608;49.288;8.130;2022-12-29T15:40:26;9.70;99.90
18950;DHT22;9608;49.288;8.130;2022-12-29T15:43:09;9.80;99.90
18950;DHT22;9608;49.288;8.130;2022-12-29T15:45:38;9.90;99.90
18950;DHT22;9608;49.288;8.130;2022-12-29T15:48:10;9.90;99.90
18950;DHT22;9608;49.288;8.130;2022-12-29T15:50:40;9.80;99.90
18950;DHT22;9608;49.288;8.130;2022-12-29T15:53:11;9.90;99.90
18950;DHT22;9608;49.288;8.130;2022-12-29T15:55:39;10.00;99.90
18950;DHT22;9608;49.288;8.130;2022-12-29T15:58:20;10.00;99.90
18950;DHT22;9608;49.288;8.130;2022-12-29T16:00:50;10.00;99.90
18950;DHT22;9608;49.288;8.130;2022-12-29T16:03:19;10.10;99.90
18950;DHT22;9608;49.288;8.130;2022-12-29T16:05:51;10.10;99.90
18950;DHT22;9608;49.288;8.130;2022-12-29T16:08:33;10.20;99.90
18950;DHT22;9608;49.288;8.130;2022-12-29T16:11:04;10.20;99.90
18950;DHT22;9608;49.288;8.130;2022-12-29T16:13:35;10.30;99.90
18950;DHT22;9608;49.288;8.130;2022-12-29T16:16:17;10.30;99.90
18950;DHT22;9608;49.288;8.130;2022-12-29T16:18:44;10.20;99.90
18950;DHT22;9608;49.288;8.130;2022-12-29T16:21:18;10.20;99.90
18950;DHT22;9608;49.288;8.130;2022-12-29T16:23:48;10.20;99.90